Vernon, Arizona
Current Conditions -  °F | °C
As of 12:35 AM on Saturday 29 Nov 2014 (Local Time) from KSOW Reporting Station
Clear Clear  
Wind Chill: 40°   Ceiling: Unl
Heat Index: 46°   Visibility: 10mi
Dew Point: 10°   Wind: 15mph
Humidity: 23%   Direction: 180°S
Pressure: 30.13"   Gusts: NA
Location:  34.26°N, 109.69°W
Report Text: KSOW 290735Z AUTO 18013KT 10SM CLR 08/M12 A3013 RMK AO2
Loading
Personal Weather Stations






























Interactive Weather Map New forecast layout! Learn more

10-Day Weather Forecast

Advertisements
Track Severe Weather on mobile